sensor_id;sensor_type;location;lat;lon;timestamp;temperature;humidity
3086;DHT22;52812;48.960;9.108;2023-04-01T00:00:53;8.50;99.90
3086;DHT22;52812;48.960;9.108;2023-04-01T00:03:20;8.50;99.90
3086;DHT22;52812;48.960;9.108;2023-04-01T00:05:46;8.50;99.90
3086;DHT22;52812;48.960;9.108;2023-04-01T00:08:12;8.50;99.90
3086;DHT22;52812;48.960;9.108;2023-04-01T00:10:37;8.50;99.90
3086;DHT22;52812;48.960;9.108;2023-04-01T00:13:04;8.40;99.90
3086;DHT22;52812;48.960;9.108;2023-04-01T00:15:29;8.40;99.90
3086;DHT22;52812;48.960;9.108;2023-04-01T00:17:55;8.40;99.90
3086;DHT22;52812;48.960;9.108;2023-04-01T00:20:21;8.40;99.90
3086;DHT22;52812;48.960;9.108;2023-04-01T00:22:46;8.40;99.90
3086;DHT22;52812;48.960;9.108;2023-04-01T00:25:12;8.40;99.90
3086;DHT22;52812;48.960;9.108;2023-04-01T00:27:38;8.40;99.90
3086;DHT22;52812;48.960;9.108;2023-04-01T00:30:04;8.40;99.90
3086;DHT22;52812;48.960;9.108;2023-04-01T00:32:30;8.40;99.90
3086;DHT22;52812;48.960;9.108;2023-04-01T00:34:56;8.40;99.90
3086;DHT22;52812;48.960;9.108;2023-04-01T00:37:25;8.40;99.90
3086;DHT22;52812;48.960;9.108;2023-04-01T00:39:51;8.40;99.90
3086;DHT22;52812;48.960;9.108;2023-04-01T00:42:17;8.40;99.90
3086;DHT22;52812;48.960;9.108;2023-04-01T00:44:47;8.40;99.90
3086;DHT22;52812;48.960;9.108;2023-04-01T00:47:13;8.40;99.90
3086;DHT22;52812;48.960;9.108;2023-04-01T00:49:42;8.40;99.90
3086;DHT22;52812;48.960;9.108;2023-04-01T00:52:12;8.50;99.90
3086;DHT22;52812;48.960;9.108;2023-04-01T00:54:38;8.50;99.90
3086;DHT22;52812;48.960;9.108;2023-04-01T00:57:12;8.50;99.90
3086;DHT22;52812;48.960;9.108;2023-04-01T00:59:49;8.60;99.90
3086;DHT22;52812;48.960;9.108;2023-04-01T01:02:16;8.70;99.90
3086;DHT22;52812;48.960;9.108;2023-04-01T01:04:42;8.80;99.90
3086;DHT22;52812;48.960;9.108;2023-04-01T01:07:18;8.90;99.90
3086;DHT22;52812;48.960;9.108;2023-04-01T01:15:16;9.30;99.90
3086;DHT22;52812;48.960;9.108;2023-04-01T01:28:45;9.50;99.90
3086;DHT22;52812;48.960;9.108;2023-04-01T01:31:50;9.50;99.90
3086;DHT22;52812;48.960;9.108;2023-04-01T01:34:41;9.60;99.90
3086;DHT22;52812;48.960;9.108;2023-04-01T01:37:14;9.60;99.90
3086;DHT22;52812;48.960;9.108;2023-04-01T01:39:43;9.50;99.90
3086;DHT22;52812;48.960;9.108;2023-04-01T01:42:13;9.60;99.90
3086;DHT22;52812;48.960;9.108;2023-04-01T01:44:43;9.60;99.90
3086;DHT22;52812;48.960;9.108;2023-04-01T01:47:10;9.60;99.90
3086;DHT22;52812;48.960;9.108;2023-04-01T01:49:36;9.60;99.90
3086;DHT22;52812;48.960;9.108;2023-04-01T01:52:03;9.50;99.90
3086;DHT22;52812;48.960;9.108;2023-04-01T01:54:29;9.50;99.90
3086;DHT22;52812;48.960;9.108;2023-04-01T01:57:04;9.60;99.90
3086;DHT22;52812;48.960;9.108;2023-04-01T01:59:33;9.70;99.90
3086;DHT22;52812;48.960;9.108;2023-04-01T02:02:00;9.70;99.90
3086;DHT22;52812;48.960;9.108;2023-04-01T02:04:37;9.70;99.90
3086;DHT22;52812;48.960;9.108;2023-04-01T02:07:09;9.80;99.90
3086;DHT22;52812;48.960;9.108;2023-04-01T02:09:36;9.80;99.90
3086;DHT22;52812;48.960;9.108;2023-04-01T02:12:08;9.70;99.90
3086;DHT22;52812;48.960;9.108;2023-04-01T02:14:39;9.80;99.90
3086;DHT22;52812;48.960;9.108;2023-04-01T02:17:10;9.80;99.90
3086;DHT22;52812;48.960;9.108;2023-04-01T02:19:54;9.70;99.90
3086;DHT22;52812;48.960;9.108;2023-04-01T02:22:24;9.60;99.90
3086;DHT22;52812;48.960;9.108;2023-04-01T02:24:54;9.50;99.90
3086;DHT22;52812;48.960;9.108;2023-04-01T02:27:22;9.50;99.90
3086;DHT22;52812;48.960;9.108;2023-04-01T02:29:49;9.50;99.90
3086;DHT22;52812;48.960;9.108;2023-04-01T02:32:16;9.50;99.90
3086;DHT22;52812;48.960;9.108;2023-04-01T02:34:43;9.60;99.90
3086;DHT22;52812;48.960;9.108;2023-04-01T02:37:10;9.50;99.90
3086;DHT22;52812;48.960;9.108;2023-04-01T02:39:36;9.50;99.90
3086;DHT22;52812;48.960;9.108;2023-04-01T02:42:01;9.50;99.90
3086;DHT22;52812;48.960;9.108;2023-04-01T02:44:27;9.50;99.90
3086;DHT22;52812;48.960;9.108;2023-04-01T02:46:53;9.60;99.90
3086;DHT22;52812;48.960;9.108;2023-04-01T02:49:18;9.50;99.90
3086;DHT22;52812;48.960;9.108;2023-04-01T02:51:44;9.60;99.90
3086;DHT22;52812;48.960;9.108;2023-04-01T02:54:10;9.50;99.90
3086;DHT22;52812;48.960;9.108;2023-04-01T02:56:35;9.60;99.90
3086;DHT22;52812;48.960;9.108;2023-04-01T02:59:01;9.60;99.90
3086;DHT22;52812;48.960;9.108;2023-04-01T03:01:27;9.60;99.90
3086;DHT22;52812;48.960;9.108;2023-04-01T03:03:53;9.60;99.90
3086;DHT22;52812;48.960;9.108;2023-04-01T03:06:18;9.60;99.90
3086;DHT22;52812;48.960;9.108;2023-04-01T03:08:44;9.50;99.90
3086;DHT22;52812;48.960;9.108;2023-04-01T03:11:11;9.50;99.90
3086;DHT22;52812;48.960;9.108;2023-04-01T03:13:37;9.50;99.90
3086;DHT22;52812;48.960;9.108;2023-04-01T03:16:03;9.40;99.90
3086;DHT22;52812;48.960;9.108;2023-04-01T03:18:29;9.40;99.90
3086;DHT22;52812;48.960;9.108;2023-04-01T03:20:54;9.40;99.90
3086;DHT22;52812;48.960;9.108;2023-04-01T03:23:20;9.30;99.90
3086;DHT22;52812;48.960;9.108;2023-04-01T03:25:47;9.30;99.90
3086;DHT22;52812;48.960;9.108;2023-04-01T03:28:12;9.30;99.90
3086;DHT22;52812;48.960;9.108;2023-04-01T03:30:39;9.30;99.90
3086;DHT22;52812;48.960;9.108;2023-04-01T03:33:04;9.20;99.90
3086;DHT22;52812;48.960;9.108;2023-04-01T03:35:30;9.20;99.90
3086;DHT22;52812;48.960;9.108;2023-04-01T03:37:56;9.10;99.90
3086;DHT22;52812;48.960;9.108;2023-04-01T03:40:22;9.00;99.90
3086;DHT22;52812;48.960;9.108;2023-04-01T03:42:48;8.90;99.90
3086;DHT22;52812;48.960;9.108;2023-04-01T03:45:14;8.90;99.90
3086;DHT22;52812;48.960;9.108;2023-04-01T03:47:40;8.90;99.90
3086;DHT22;52812;48.960;9.108;2023-04-01T03:50:07;8.80;99.90
3086;DHT22;52812;48.960;9.108;2023-04-01T03:52:33;8.60;99.90
3086;DHT22;52812;48.960;9.108;2023-04-01T03:55:00;8.60;99.90
3086;DHT22;52812;48.960;9.108;2023-04-01T03:57:26;8.60;99.90
3086;DHT22;52812;48.960;9.108;2023-04-01T03:59:51;8.50;99.90
3086;DHT22;52812;48.960;9.108;2023-04-01T04:02:17;8.50;99.90
3086;DHT22;52812;48.960;9.108;2023-04-01T04:04:42;8.40;99.90
3086;DHT22;52812;48.960;9.108;2023-04-01T04:07:08;8.40;99.90
3086;DHT22;52812;48.960;9.108;2023-04-01T04:09:34;8.40;99.90
3086;DHT22;52812;48.960;9.108;2023-04-01T04:12:00;8.40;99.90
3086;DHT22;52812;48.960;9.108;2023-04-01T04:14:26;8.40;99.90
3086;DHT22;52812;48.960;9.108;2023-04-01T04:16:52;8.50;99.90
3086;DHT22;52812;48.960;9.108;2023-04-01T04:19:18;8.40;99.90
3086;DHT22;52812;48.960;9.108;2023-04-01T04:21:43;8.50;99.90
3086;DHT22;52812;48.960;9.108;2023-04-01T04:24:09;8.50;99.90
3086;DHT22;52812;48.960;9.108;2023-04-01T04:26:35;8.40;99.90
3086;DHT22;52812;48.960;9.108;2023-04-01T04:29:01;8.40;99.90
3086;DHT22;52812;48.960;9.108;2023-04-01T04:31:27;8.50;99.90
3086;DHT22;52812;48.960;9.108;2023-04-01T04:33:53;8.40;99.90
3086;DHT22;52812;48.960;9.108;2023-04-01T04:36:19;8.40;99.90
3086;DHT22;52812;48.960;9.108;2023-04-01T04:38:45;8.40;99.90
3086;DHT22;52812;48.960;9.108;2023-04-01T04:41:15;8.30;99.90
3086;DHT22;52812;48.960;9.108;2023-04-01T04:43:52;8.30;99.90
3086;DHT22;52812;48.960;9.108;2023-04-01T04:46:19;8.20;99.90
3086;DHT22;52812;48.960;9.108;2023-04-01T04:48:45;8.10;99.90
3086;DHT22;52812;48.960;9.108;2023-04-01T04:51:15;8.10;99.90
3086;DHT22;52812;48.960;9.108;2023-04-01T04:53:42;8.00;99.90
3086;DHT22;52812;48.960;9.108;2023-04-01T04:56:07;8.00;99.90
3086;DHT22;52812;48.960;9.108;2023-04-01T04:58:33;8.10;99.90
3086;DHT22;52812;48.960;9.108;2023-04-01T05:01:04;8.10;99.90
3086;DHT22;52812;48.960;9.108;2023-04-01T05:03:30;8.10;99.90
3086;DHT22;52812;48.960;9.108;2023-04-01T05:05:56;8.10;99.90
3086;DHT22;52812;48.960;9.108;2023-04-01T05:08:21;8.20;99.90
3086;DHT22;52812;48.960;9.108;2023-04-01T05:10:47;8.20;99.90
3086;DHT22;52812;48.960;9.108;2023-04-01T05:13:13;8.20;99.90
3086;DHT22;52812;48.960;9.108;2023-04-01T05:15:38;8.30;99.90
3086;DHT22;52812;48.960;9.108;2023-04-01T05:18:04;8.30;99.90
3086;DHT22;52812;48.960;9.108;2023-04-01T05:20:30;8.30;99.90
3086;DHT22;52812;48.960;9.108;2023-04-01T05:22:57;8.30;99.90
3086;DHT22;52812;48.960;9.108;2023-04-01T05:25:23;8.40;99.90
3086;DHT22;52812;48.960;9.108;2023-04-01T05:27:48;8.40;99.90
3086;DHT22;52812;48.960;9.108;2023-04-01T05:30:14;8.40;99.90
3086;DHT22;52812;48.960;9.108;2023-04-01T05:32:40;8.50;99.90
3086;DHT22;52812;48.960;9.108;2023-04-01T05:35:06;8.50;99.90
3086;DHT22;52812;48.960;9.108;2023-04-01T05:37:34;8.60;99.90
3086;DHT22;52812;48.960;9.108;2023-04-01T05:39:59;8.70;99.90
3086;DHT22;52812;48.960;9.108;2023-04-01T05:42:25;8.80;99.90
3086;DHT22;52812;48.960;9.108;2023-04-01T05:44:51;8.80;99.90
3086;DHT22;52812;48.960;9.108;2023-04-01T05:47:16;8.90;99.90
3086;DHT22;52812;48.960;9.108;2023-04-01T05:49:42;8.90;99.90
3086;DHT22;52812;48.960;9.108;2023-04-01T05:52:08;9.00;99.90
3086;DHT22;52812;48.960;9.108;2023-04-01T05:54:33;9.00;99.90
3086;DHT22;52812;48.960;9.108;2023-04-01T05:56:59;9.00;99.90
3086;DHT22;52812;48.960;9.108;2023-04-01T05:59:25;9.10;99.90
3086;DHT22;52812;48.960;9.108;2023-04-01T06:01:53;9.00;99.90
3086;DHT22;52812;48.960;9.108;2023-04-01T06:04:19;9.10;99.90
3086;DHT22;52812;48.960;9.108;2023-04-01T06:06:45;9.10;99.90
3086;DHT22;52812;48.960;9.108;2023-04-01T06:09:17;9.10;99.90
3086;DHT22;52812;48.960;9.108;2023-04-01T06:25:36;9.40;99.90
3086;DHT22;52812;48.960;9.108;2023-04-01T06:56:05;9.80;99.90
3086;DHT22;52812;48.960;9.108;2023-04-01T06:58:44;9.80;99.90
3086;DHT22;52812;48.960;9.108;2023-04-01T07:01:16;9.90;99.90
3086;DHT22;52812;48.960;9.108;2023-04-01T07:03:47;10.00;99.90
3086;DHT22;52812;48.960;9.108;2023-04-01T07:06:34;10.00;99.90
3086;DHT22;52812;48.960;9.108;2023-04-01T07:09:05;10.00;99.90
3086;DHT22;52812;48.960;9.108;2023-04-01T07:11:34;10.10;99.90
3086;DHT22;52812;48.960;9.108;2023-04-01T07:16:49;10.20;99.90
3086;DHT22;52812;48.960;9.108;2023-04-01T07:19:33;10.20;99.90
3086;DHT22;52812;48.960;9.108;2023-04-01T07:22:26;10.20;99.90
3086;DHT22;52812;48.960;9.108;2023-04-01T07:24:53;10.20;99.90
3086;DHT22;52812;48.960;9.108;2023-04-01T07:27:19;10.20;99.90
3086;DHT22;52812;48.960;9.108;2023-04-01T07:29:45;10.20;99.90
3086;DHT22;52812;48.960;9.108;2023-04-01T07:41:12;10.40;99.90
3086;DHT22;52812;48.960;9.108;2023-04-01T07:49:32;10.40;99.90
3086;DHT22;52812;48.960;9.108;2023-04-01T07:54:46;10.60;99.90
3086;DHT22;52812;48.960;9.108;2023-04-01T08:00:27;10.60;99.90
3086;DHT22;52812;48.960;9.108;2023-04-01T08:05:55;10.60;99.90
3086;DHT22;52812;48.960;9.108;2023-04-01T08:14:04;10.50;99.90
3086;DHT22;52812;48.960;9.108;2023-04-01T08:21:49;10.50;99.90
3086;DHT22;52812;48.960;9.108;2023-04-01T08:24:35;10.40;99.90
3086;DHT22;52812;48.960;9.108;2023-04-01T08:27:09;10.20;99.90
3086;DHT22;52812;48.960;9.108;2023-04-01T08:32:11;10.20;99.90
3086;DHT22;52812;48.960;9.108;2023-04-01T08:34:40;10.20;99.90
3086;DHT22;52812;48.960;9.108;2023-04-01T08:37:21;10.30;99.90
3086;DHT22;52812;48.960;9.108;2023-04-01T08:45:56;10.00;99.90
3086;DHT22;52812;48.960;9.108;2023-04-01T08:52:12;9.90;99.90
3086;DHT22;52812;48.960;9.108;2023-04-01T09:05:22;9.80;99.90
3086;DHT22;52812;48.960;9.108;2023-04-01T09:13:29;10.00;99.90
3086;DHT22;52812;48.960;9.108;2023-04-01T09:16:13;10.00;99.90
3086;DHT22;52812;48.960;9.108;2023-04-01T09:21:37;10.30;99.90
3086;DHT22;52812;48.960;9.108;2023-04-01T09:24:44;10.40;99.90
3086;DHT22;52812;48.960;9.108;2023-04-01T09:27:28;10.50;99.90
3086;DHT22;52812;48.960;9.108;2023-04-01T09:30:13;10.50;99.90
3086;DHT22;52812;48.960;9.108;2023-04-01T09:35:21;10.40;99.90
3086;DHT22;52812;48.960;9.108;2023-04-01T09:38:44;10.40;99.90
3086;DHT22;52812;48.960;9.108;2023-04-01T09:43:25;10.40;99.90
3086;DHT22;52812;48.960;9.108;2023-04-01T09:46:06;10.50;99.90
3086;DHT22;52812;48.960;9.108;2023-04-01T10:13:51;10.80;99.90
3086;DHT22;52812;48.960;9.108;2023-04-01T10:19:38;10.90;99.90
3086;DHT22;52812;48.960;9.108;2023-04-01T10:39:00;10.90;99.90
3086;DHT22;52812;48.960;9.108;2023-04-01T10:45:00;10.90;99.90
3086;DHT22;52812;48.960;9.108;2023-04-01T10:55:36;11.10;99.90
3086;DHT22;52812;48.960;9.108;2023-04-01T11:12:47;11.20;99.90
3086;DHT22;52812;48.960;9.108;2023-04-01T11:23:45;11.30;99.90
3086;DHT22;52812;48.960;9.108;2023-04-01T11:34:37;11.70;99.90
3086;DHT22;52812;48.960;9.108;2023-04-01T11:40:19;12.10;99.90
3086;DHT22;52812;48.960;9.108;2023-04-01T11:45:38;12.30;99.90
3086;DHT22;52812;48.960;9.108;2023-04-01T11:51:33;12.30;99.90
3086;DHT22;52812;48.960;9.108;2023-04-01T12:05:04;11.90;99.90
3086;DHT22;52812;48.960;9.108;2023-04-01T12:10:56;12.00;99.90
3086;DHT22;52812;48.960;9.108;2023-04-01T12:16:49;11.90;99.90
3086;DHT22;52812;48.960;9.108;2023-04-01T12:19:35;11.70;99.90
3086;DHT22;52812;48.960;9.108;2023-04-01T12:22:49;11.80;99.90
3086;DHT22;52812;48.960;9.108;2023-04-01T12:33:47;11.70;99.90
3086;DHT22;52812;48.960;9.108;2023-04-01T12:47:21;11.60;99.90
3086;DHT22;52812;48.960;9.108;2023-04-01T12:50:44;11.70;99.90
3086;DHT22;52812;48.960;9.108;2023-04-01T12:55:41;11.60;99.90
3086;DHT22;52812;48.960;9.108;2023-04-01T12:58:26;11.50;99.90
3086;DHT22;52812;48.960;9.108;2023-04-01T13:22:26;11.20;99.90
3086;DHT22;52812;48.960;9.108;2023-04-01T13:27:29;11.10;99.90
3086;DHT22;52812;48.960;9.108;2023-04-01T13:35:28;10.50;99.90
3086;DHT22;52812;48.960;9.108;2023-04-01T13:43:39;10.60;99.90
3086;DHT22;52812;48.960;9.108;2023-04-01T13:48:58;10.80;99.90
3086;DHT22;52812;48.960;9.108;2023-04-01T14:13:49;10.60;99.90
3086;DHT22;52812;48.960;9.108;2023-04-01T14:19:11;10.50;99.90
3086;DHT22;52812;48.960;9.108;2023-04-01T14:21:51;10.60;99.90
3086;DHT22;52812;48.960;9.108;2023-04-01T14:24:46;10.70;99.90
3086;DHT22;52812;48.960;9.108;2023-04-01T14:28:03;10.80;99.90
3086;DHT22;52812;48.960;9.108;2023-04-01T14:36:25;11.10;99.90
3086;DHT22;52812;48.960;9.108;2023-04-01T14:45:12;11.20;99.90
3086;DHT22;52812;48.960;9.108;2023-04-01T14:50:47;11.30;99.90
3086;DHT22;52812;48.960;9.108;2023-04-01T14:55:55;11.30;99.90
3086;DHT22;52812;48.960;9.108;2023-04-01T14:58:24;11.40;99.90
3086;DHT22;52812;48.960;9.108;2023-04-01T15:16:54;11.40;99.90
3086;DHT22;52812;48.960;9.108;2023-04-01T15:33:10;11.30;99.90
3086;DHT22;52812;48.960;9.108;2023-04-01T15:35:51;11.30;99.90
3086;DHT22;52812;48.960;9.108;2023-04-01T15:43:46;11.20;99.90
3086;DHT22;52812;48.960;9.108;2023-04-01T15:55:00;11.20;99.90
3086;DHT22;52812;48.960;9.108;2023-04-01T15:57:52;11.20;99.90
3086;DHT22;52812;48.960;9.108;2023-04-01T16:24:54;10.90;99.90
3086;DHT22;52812;48.960;9.108;2023-04-01T16:27:35;10.90;99.90
3086;DHT22;52812;48.960;9.108;2023-04-01T16:30:32;10.90;99.90
3086;DHT22;52812;48.960;9.108;2023-04-01T16:33:04;10.80;99.90
3086;DHT22;52812;48.960;9.108;2023-04-01T16:38:32;10.80;99.90
3086;DHT22;52812;48.960;9.108;2023-04-01T16:41:25;10.80;99.90
3086;DHT22;52812;48.960;9.108;2023-04-01T16:47:09;10.80;99.90
3086;DHT22;52812;48.960;9.108;2023-04-01T16:49:52;10.80;99.90
3086;DHT22;52812;48.960;9.108;2023-04-01T16:52:44;10.70;99.90
3086;DHT22;52812;48.960;9.108;2023-04-01T16:55:18;10.70;99.90
3086;DHT22;52812;48.960;9.108;2023-04-01T17:00:30;10.70;99.90
3086;DHT22;52812;48.960;9.108;2023-04-01T17:14:23;10.50;99.90
3086;DHT22;52812;48.960;9.108;2023-04-01T17:28:25;10.40;99.90
3086;DHT22;52812;48.960;9.108;2023-04-01T17:31:20;10.30;99.90
3086;DHT22;52812;48.960;9.108;2023-04-01T17:42:34;10.30;99.90
3086;DHT22;52812;48.960;9.108;2023-04-01T17:45:09;10.30;99.90
3086;DHT22;52812;48.960;9.108;2023-04-01T17:47:49;10.30;99.90
3086;DHT22;52812;48.960;9.108;2023-04-01T17:55:37;10.10;99.90
3086;DHT22;52812;48.960;9.108;2023-04-01T18:09:29;9.70;99.90
3086;DHT22;52812;48.960;9.108;2023-04-01T18:26:08;9.60;99.90
3086;DHT22;52812;48.960;9.108;2023-04-01T18:28:47;9.50;99.90
3086;DHT22;52812;48.960;9.108;2023-04-01T18:31:18;9.40;99.90
3086;DHT22;52812;48.960;9.108;2023-04-01T18:34:10;9.40;99.90
3086;DHT22;52812;48.960;9.108;2023-04-01T18:36:46;9.40;99.90
3086;DHT22;52812;48.960;9.108;2023-04-01T18:39:33;9.40;99.90
3086;DHT22;52812;48.960;9.108;2023-04-01T18:45:17;9.30;99.90
3086;DHT22;52812;48.960;9.108;2023-04-01T18:50:47;9.30;99.90
3086;DHT22;52812;48.960;9.108;2023-04-01T18:59:39;9.20;99.90
3086;DHT22;52812;48.960;9.108;2023-04-01T19:05:11;9.00;99.90
3086;DHT22;52812;48.960;9.108;2023-04-01T19:07:44;8.90;99.90
3086;DHT22;52812;48.960;9.108;2023-04-01T19:13:22;8.70;99.90
3086;DHT22;52812;48.960;9.108;2023-04-01T19:16:04;8.70;99.90
3086;DHT22;52812;48.960;9.108;2023-04-01T19:21:42;8.60;99.90
3086;DHT22;52812;48.960;9.108;2023-04-01T19:35:58;8.50;99.90
3086;DHT22;52812;48.960;9.108;2023-04-01T19:46:47;8.10;99.90
3086;DHT22;52812;48.960;9.108;2023-04-01T19:58:19;8.00;99.90
3086;DHT22;52812;48.960;9.108;2023-04-01T20:00:52;7.90;99.90
3086;DHT22;52812;48.960;9.108;2023-04-01T20:03:54;7.80;99.90
3086;DHT22;52812;48.960;9.108;2023-04-01T20:18:19;7.70;99.90
3086;DHT22;52812;48.960;9.108;2023-04-01T20:20:56;7.90;99.90
3086;DHT22;52812;48.960;9.108;2023-04-01T20:33:21;8.00;99.90
3086;DHT22;52812;48.960;9.108;2023-04-01T20:47:46;8.10;99.90
3086;DHT22;52812;48.960;9.108;2023-04-01T20:50:31;8.10;99.90
3086;DHT22;52812;48.960;9.108;2023-04-01T20:53:21;8.20;99.90
3086;DHT22;52812;48.960;9.108;2023-04-01T21:01:41;8.40;99.90
3086;DHT22;52812;48.960;9.108;2023-04-01T21:07:06;8.50;99.90
3086;DHT22;52812;48.960;9.108;2023-04-01T21:10:01;8.50;99.90
3086;DHT22;52812;48.960;9.108;2023-04-01T21:23:36;8.50;99.90
3086;DHT22;52812;48.960;9.108;2023-04-01T21:31:52;8.60;99.90
3086;DHT22;52812;48.960;9.108;2023-04-01T21:34:44;8.50;99.90
3086;DHT22;52812;48.960;9.108;2023-04-01T21:37:44;8.60;99.90
3086;DHT22;52812;48.960;9.108;2023-04-01T21:48:49;8.70;99.90
3086;DHT22;52812;48.960;9.108;2023-04-01T22:02:34;9.10;99.90
3086;DHT22;52812;48.960;9.108;2023-04-01T22:17:02;9.00;99.90
3086;DHT22;52812;48.960;9.108;2023-04-01T22:19:52;9.10;99.90
3086;DHT22;52812;48.960;9.108;2023-04-01T22:25:19;9.10;99.90
3086;DHT22;52812;48.960;9.108;2023-04-01T22:27:55;9.00;99.90
3086;DHT22;52812;48.960;9.108;2023-04-01T22:30:31;9.00;99.90
3086;DHT22;52812;48.960;9.108;2023-04-01T22:56:05;9.00;99.90
3086;DHT22;52812;48.960;9.108;2023-04-01T22:58:56;9.00;99.90
3086;DHT22;52812;48.960;9.108;2023-04-01T23:01:30;9.00;99.90
3086;DHT22;52812;48.960;9.108;2023-04-01T23:03:59;9.00;99.90
3086;DHT22;52812;48.960;9.108;2023-04-01T23:06:28;9.00;99.90
3086;DHT22;52812;48.960;9.108;2023-04-01T23:09:07;9.00;99.90
3086;DHT22;52812;48.960;9.108;2023-04-01T23:11:39;8.90;99.90
3086;DHT22;52812;48.960;9.108;2023-04-01T23:24:50;8.80;99.90
3086;DHT22;52812;48.960;9.108;2023-04-01T23:27:29;8.80;99.90
3086;DHT22;52812;48.960;9.108;2023-04-01T23:29:56;8.70;99.90
3086;DHT22;52812;48.960;9.108;2023-04-01T23:32:25;8.70;99.90
3086;DHT22;52812;48.960;9.108;2023-04-01T23:34:59;8.70;99.90
3086;DHT22;52812;48.960;9.108;2023-04-01T23:37:26;8.70;99.90
3086;DHT22;52812;48.960;9.108;2023-04-01T23:39:54;8.70;99.90
3086;DHT22;52812;48.960;9.108;2023-04-01T23:42:24;8.70;99.90
3086;DHT22;52812;48.960;9.108;2023-04-01T23:44:54;8.80;99.90
3086;DHT22;52812;48.960;9.108;2023-04-01T23:47:39;8.70;99.90
3086;DHT22;52812;48.960;9.108;2023-04-01T23:52:43;8.80;99.90
3086;DHT22;52812;48.960;9.108;2023-04-01T23:55:13;8.80;99.90
3086;DHT22;52812;48.960;9.108;2023-04-01T23:57:39;8.70;99.90
